Terminal Aerodrome Forecast
Issued by NWS Boston, MA

Home | Current Version | Previous Version | Text Only | Print | Product List | Glossary On
Versions: 1 2 3 4 5 6 7 8 9 10 11 12 13 14 15 16 17 18 19 20 21 22 23 24 25 26 27 28 29 30 31 32 33 34 35 36 37 38 39 40 41 42 43 44 45 46
000
FTUS41 KBOX 271506 AAA
TAFBDL
TAF AMD
KBDL 271506Z 2715/2818 19003KT P6SM BKN015
     FM271900 19005KT P6SM BKN020
     FM280200 17006KT P6SM BKN008
     FM280600 16005KT 4SM BR VCSH OVC003
     FM281000 17004KT 4SM BR VCSH OVC010
     FM281200 18004KT 4SM BR OVC010
     FM281400 VRB03KT P6SM BKN200=

USA.gov is the U.S. government's official web portal to all federal, state and local government web resources and services.